La Jolla, California
Current Conditions -  °F | °C
As of 4:55 PM on Tuesday 25 Nov 2014 (Local Time) from KNKX Reporting Station
Clear Clear  
Wind Chill: 68°   Ceiling: Unl
Heat Index: 68°   Visibility: 10mi
Dew Point: 13°   Wind: 6mph
Humidity: 12%   Direction: 320°NW
Pressure: 30.26"   Gusts: NA
Location:  32.84°N, 117.27°W
Report Text: KNKX 260055Z AUTO 32005KT 10SM CLR 20/M11 A3026 RMK AO2 SLP243 T02001106
Loading
Personal Weather Stations






























Interactive Weather Map New forecast layout! Learn more

10-Day Weather Forecast

Advertisements
Track Severe Weather on mobile